sensor_id;sensor_type;location;lat;lon;timestamp;pressure;altitude;pressure_sealevel;temperature;humidity
51359;BME280;37448;51.588;7.248;2022-07-23T00:02:23;101086.69;;;16.21;100.00
51359;BME280;37448;51.588;7.248;2022-07-23T00:04:53;101085.91;;;16.24;100.00
51359;BME280;37448;51.588;7.248;2022-07-23T00:07:24;101088.69;;;16.20;100.00
51359;BME280;37448;51.588;7.248;2022-07-23T00:09:54;101091.03;;;16.22;100.00
51359;BME280;37448;51.588;7.248;2022-07-23T00:12:25;101086.69;;;16.21;100.00
51359;BME280;37448;51.588;7.248;2022-07-23T00:14:56;101074.69;;;15.88;100.00
51359;BME280;37448;51.588;7.248;2022-07-23T00:17:26;101072.28;;;15.83;100.00
51359;BME280;37448;51.588;7.248;2022-07-23T00:19:56;101065.63;;;15.95;100.00
51359;BME280;37448;51.588;7.248;2022-07-23T00:22:27;101064.41;;;15.89;100.00
51359;BME280;37448;51.588;7.248;2022-07-23T00:24:59;101058.06;;;15.95;100.00
51359;BME280;37448;51.588;7.248;2022-07-23T00:27:29;101060.47;;;15.93;100.00
51359;BME280;37448;51.588;7.248;2022-07-23T00:29:59;101066.72;;;15.76;100.00
51359;BME280;37448;51.588;7.248;2022-07-23T00:32:30;101073.91;;;15.91;100.00
51359;BME280;37448;51.588;7.248;2022-07-23T00:35:00;101077.09;;;15.93;100.00
51359;BME280;37448;51.588;7.248;2022-07-23T00:37:30;101064.44;;;15.99;100.00
51359;BME280;37448;51.588;7.248;2022-07-23T00:40:01;101069.16;;;15.95;100.00
51359;BME280;37448;51.588;7.248;2022-07-23T00:42:32;101068.34;;;15.88;100.00
51359;BME280;37448;51.588;7.248;2022-07-23T00:45:03;101072.72;;;15.92;100.00
51359;BME280;37448;51.588;7.248;2022-07-23T00:47:34;101076.28;;;15.93;100.00
51359;BME280;37448;51.588;7.248;2022-07-23T00:50:06;101065.19;;;15.89;100.00
51359;BME280;37448;51.588;7.248;2022-07-23T00:52:38;101075.47;;;15.85;100.00
51359;BME280;37448;51.588;7.248;2022-07-23T00:55:10;101073.09;;;15.84;100.00
51359;BME280;37448;51.588;7.248;2022-07-23T00:57:42;101069.13;;;15.85;100.00
51359;BME280;37448;51.588;7.248;2022-07-23T01:00:14;101065.94;;;15.79;100.00
51359;BME280;37448;51.588;7.248;2022-07-23T01:02:44;101064.38;;;15.82;100.00
51359;BME280;37448;51.588;7.248;2022-07-23T01:05:15;101060.41;;;15.83;100.00
51359;BME280;37448;51.588;7.248;2022-07-23T01:07:51;101065.94;;;15.79;100.00
51359;BME280;37448;51.588;7.248;2022-07-23T01:10:22;101065.97;;;15.86;100.00
51359;BME280;37448;51.588;7.248;2022-07-23T01:13:07;101070.31;;;15.87;100.00
51359;BME280;37448;51.588;7.248;2022-07-23T01:15:38;101065.56;;;15.84;100.00
51359;BME280;37448;51.588;7.248;2022-07-23T01:18:09;101065.97;;;15.86;100.00
51359;BME280;37448;51.588;7.248;2022-07-23T01:20:40;101056.44;;;15.77;100.00
51359;BME280;37448;51.588;7.248;2022-07-23T01:23:10;101054.03;;;15.75;100.00
51359;BME280;37448;51.588;7.248;2022-07-23T01:25:53;101063.53;;;15.74;100.00
51359;BME280;37448;51.588;7.248;2022-07-23T01:28:24;101057.19;;;15.70;100.00
51359;BME280;37448;51.588;7.248;2022-07-23T01:30:55;101057.19;;;15.70;100.00
51359;BME280;37448;51.588;7.248;2022-07-23T01:33:25;101044.53;;;15.73;100.00
51359;BME280;37448;51.588;7.248;2022-07-23T01:35:55;101054.03;;;15.72;100.00
51359;BME280;37448;51.588;7.248;2022-07-23T01:38:26;101057.19;;;15.70;100.00
51359;BME280;37448;51.588;7.248;2022-07-23T01:40:56;101060.72;;;15.60;100.00
51359;BME280;37448;51.588;7.248;2022-07-23T01:43:26;101056.34;;;15.59;100.00
51359;BME280;37448;51.588;7.248;2022-07-23T01:45:57;101061.91;;;15.66;100.00
51359;BME280;37448;51.588;7.248;2022-07-23T01:48:27;101053.66;;;15.73;100.00
51359;BME280;37448;51.588;7.248;2022-07-23T01:50:58;101047.31;;;15.69;100.00
51359;BME280;37448;51.588;7.248;2022-07-23T01:53:28;101054.03;;;15.72;100.00
51359;BME280;37448;51.588;7.248;2022-07-23T01:56:01;101048.34;;;15.47;100.00
51359;BME280;37448;51.588;7.248;2022-07-23T01:58:32;101056.66;;;15.47;100.00
51359;BME280;37448;51.588;7.248;2022-07-23T02:01:02;101047.66;;;15.57;100.00
51359;BME280;37448;51.588;7.248;2022-07-23T02:03:32;101053.22;;;15.61;100.00
51359;BME280;37448;51.588;7.248;2022-07-23T02:06:03;101053.19;;;15.57;100.00
51359;BME280;37448;51.588;7.248;2022-07-23T02:08:33;101056.38;;;15.63;100.00
51359;BME280;37448;51.588;7.248;2022-07-23T02:11:03;101050.00;;;15.59;100.00
51359;BME280;37448;51.588;7.248;2022-07-23T02:13:34;101059.91;;;15.52;100.00
51359;BME280;37448;51.588;7.248;2022-07-23T02:16:04;101046.69;;;15.32;100.00
51359;BME280;37448;51.588;7.248;2022-07-23T02:18:35;101050.63;;;15.31;100.00
51359;BME280;37448;51.588;7.248;2022-07-23T02:21:05;101049.03;;;15.26;100.00
51359;BME280;37448;51.588;7.248;2022-07-23T02:23:36;101042.69;;;15.26;100.00
51359;BME280;37448;51.588;7.248;2022-07-23T02:26:06;101047.06;;;15.27;100.00
51359;BME280;37448;51.588;7.248;2022-07-23T02:28:37;101048.22;;;15.26;100.00
51359;BME280;37448;51.588;7.248;2022-07-23T02:31:07;101041.09;;;15.21;100.00
51359;BME280;37448;51.588;7.248;2022-07-23T02:33:37;101051.31;;;15.14;100.00
51359;BME280;37448;51.588;7.248;2022-07-23T02:36:08;101050.53;;;15.17;100.00
51359;BME280;37448;51.588;7.248;2022-07-23T02:38:39;101047.34;;;15.11;100.00
51359;BME280;37448;51.588;7.248;2022-07-23T02:41:09;101039.44;;;15.13;100.00
51359;BME280;37448;51.588;7.248;2022-07-23T02:43:39;101040.28;;;15.17;100.00
51359;BME280;37448;51.588;7.248;2022-07-23T02:46:10;101047.44;;;15.25;100.00
51359;BME280;37448;51.588;7.248;2022-07-23T02:48:40;101050.63;;;15.27;100.00
51359;BME280;37448;51.588;7.248;2022-07-23T02:51:11;101043.50;;;15.26;100.00
51359;BME280;37448;51.588;7.248;2022-07-23T02:53:41;101050.16;;;15.18;100.00
51359;BME280;37448;51.588;7.248;2022-07-23T02:56:11;101043.84;;;15.18;100.00
51359;BME280;37448;51.588;7.248;2022-07-23T02:58:42;101044.19;;;15.13;100.00
51359;BME280;37448;51.588;7.248;2022-07-23T03:01:12;101041.03;;;15.11;100.00
51359;BME280;37448;51.588;7.248;2022-07-23T03:03:43;101045.38;;;15.12;100.00
51359;BME280;37448;51.588;7.248;2022-07-23T03:06:13;101045.72;;;15.06;100.00
51359;BME280;37448;51.588;7.248;2022-07-23T03:08:43;101046.47;;;14.96;100.00
51359;BME280;37448;51.588;7.248;2022-07-23T03:11:14;101040.16;;;14.99;100.00
51359;BME280;37448;51.588;7.248;2022-07-23T03:13:44;101041.69;;;14.93;100.00
51359;BME280;37448;51.588;7.248;2022-07-23T03:16:15;101039.69;;;14.90;100.00
51359;BME280;37448;51.588;7.248;2022-07-23T03:18:45;101046.47;;;14.96;100.00
51359;BME280;37448;51.588;7.248;2022-07-23T03:21:16;101042.13;;;15.02;100.00
51359;BME280;37448;51.588;7.248;2022-07-23T03:23:47;101036.97;;;14.97;100.00
51359;BME280;37448;51.588;7.248;2022-07-23T03:26:17;101046.13;;;15.05;100.00
51359;BME280;37448;51.588;7.248;2022-07-23T03:28:48;101031.09;;;15.06;100.00
51359;BME280;37448;51.588;7.248;2022-07-23T03:31:18;101032.31;;;15.08;100.00
51359;BME280;37448;51.588;7.248;2022-07-23T03:33:48;101035.88;;;15.09;100.00
51359;BME280;37448;51.588;7.248;2022-07-23T03:36:19;101043.38;;;15.08;100.00
51359;BME280;37448;51.588;7.248;2022-07-23T03:38:49;101030.72;;;15.07;100.00
51359;BME280;37448;51.588;7.248;2022-07-23T03:41:20;101037.81;;;15.01;100.00
51359;BME280;37448;51.588;7.248;2022-07-23T03:43:51;101037.00;;;15.01;100.00
51359;BME280;37448;51.588;7.248;2022-07-23T03:46:21;101040.91;;;14.96;100.00
51359;BME280;37448;51.588;7.248;2022-07-23T03:48:52;101040.09;;;14.92;100.00
51359;BME280;37448;51.588;7.248;2022-07-23T03:51:22;101038.13;;;14.89;100.00
51359;BME280;37448;51.588;7.248;2022-07-23T03:53:52;101045.19;;;14.87;100.00
51359;BME280;37448;51.588;7.248;2022-07-23T03:56:24;101042.75;;;14.78;100.00
51359;BME280;37448;51.588;7.248;2022-07-23T03:58:56;101040.34;;;14.73;100.00
51359;BME280;37448;51.588;7.248;2022-07-23T04:01:26;101046.63;;;14.67;100.00
51359;BME280;37448;51.588;7.248;2022-07-23T04:03:57;101047.75;;;14.62;100.00
51359;BME280;37448;51.588;7.248;2022-07-23T04:06:27;101053.31;;;14.66;100.00
51359;BME280;37448;51.588;7.248;2022-07-23T04:08:58;101054.13;;;14.66;100.00
51359;BME280;37448;51.588;7.248;2022-07-23T04:11:28;101052.53;;;14.65;100.00
51359;BME280;37448;51.588;7.248;2022-07-23T04:13:58;101052.88;;;14.60;100.00
51359;BME280;37448;51.588;7.248;2022-07-23T04:16:29;101043.38;;;14.57;100.00
51359;BME280;37448;51.588;7.248;2022-07-23T04:19:01;101061.16;;;14.60;100.00
51359;BME280;37448;51.588;7.248;2022-07-23T04:21:31;101058.81;;;14.58;100.00
51359;BME280;37448;51.588;7.248;2022-07-23T04:24:02;101051.31;;;14.62;100.00
51359;BME280;37448;51.588;7.248;2022-07-23T04:26:32;101053.34;;;14.69;100.00
51359;BME280;37448;51.588;7.248;2022-07-23T04:29:03;101057.72;;;14.70;100.00
51359;BME280;37448;51.588;7.248;2022-07-23T04:31:33;101062.06;;;14.71;100.00
51359;BME280;37448;51.588;7.248;2022-07-23T04:34:03;101058.16;;;14.76;100.00
51359;BME280;37448;51.588;7.248;2022-07-23T04:36:34;101061.72;;;14.76;100.00
51359;BME280;37448;51.588;7.248;2022-07-23T04:39:04;101063.72;;;14.79;100.00
51359;BME280;37448;51.588;7.248;2022-07-23T04:41:35;101071.06;;;14.61;100.00
51359;BME280;37448;51.588;7.248;2022-07-23T04:44:05;101069.16;;;14.69;100.00
51359;BME280;37448;51.588;7.248;2022-07-23T04:46:36;101071.19;;;14.75;100.00
51359;BME280;37448;51.588;7.248;2022-07-23T04:49:06;101071.59;;;14.77;100.00
51359;BME280;37448;51.588;7.248;2022-07-23T04:51:36;101082.75;;;14.84;100.00
51359;BME280;37448;51.588;7.248;2022-07-23T04:54:07;101078.78;;;14.85;100.00
51359;BME280;37448;51.588;7.248;2022-07-23T04:56:37;101085.09;;;14.82;100.00
51359;BME280;37448;51.588;7.248;2022-07-23T04:59:07;101080.41;;;14.90;100.00
51359;BME280;37448;51.588;7.248;2022-07-23T05:01:38;101076.00;;;14.85;100.00
51359;BME280;37448;51.588;7.248;2022-07-23T05:04:08;101077.28;;;14.95;100.00
51359;BME280;37448;51.588;7.248;2022-07-23T05:06:39;101078.94;;;15.06;100.00
51359;BME280;37448;51.588;7.248;2022-07-23T05:09:09;101085.00;;;15.23;100.00
51359;BME280;37448;51.588;7.248;2022-07-23T05:11:39;101093.72;;;15.25;100.00
51359;BME280;37448;51.588;7.248;2022-07-23T05:14:10;101100.13;;;15.36;100.00
51359;BME280;37448;51.588;7.248;2022-07-23T05:16:42;101098.19;;;15.40;100.00
51359;BME280;37448;51.588;7.248;2022-07-23T05:19:12;101098.22;;;15.47;100.00
51359;BME280;37448;51.588;7.248;2022-07-23T05:21:43;101102.47;;;15.34;100.00
51359;BME280;37448;51.588;7.248;2022-07-23T05:24:14;101105.34;;;15.44;100.00
51359;BME280;37448;51.588;7.248;2022-07-23T05:26:44;101101.47;;;15.56;100.00
51359;BME280;37448;51.588;7.248;2022-07-23T05:29:15;101107.88;;;15.71;100.00
51359;BME280;37448;51.588;7.248;2022-07-23T05:31:45;101105.53;;;15.83;100.00
51359;BME280;37448;51.588;7.248;2022-07-23T05:34:15;101097.66;;;15.92;100.00
51359;BME280;37448;51.588;7.248;2022-07-23T05:36:46;101102.41;;;15.88;100.00
51359;BME280;37448;51.588;7.248;2022-07-23T05:39:16;101108.78;;;15.96;100.00
51359;BME280;37448;51.588;7.248;2022-07-23T05:41:47;101112.78;;;16.13;100.00
51359;BME280;37448;51.588;7.248;2022-07-23T05:44:17;101112.91;;;16.41;100.00
51359;BME280;37448;51.588;7.248;2022-07-23T05:46:47;101117.34;;;17.34;100.00
51359;BME280;37448;51.588;7.248;2022-07-23T05:49:18;101121.03;;;18.25;100.00
51359;BME280;37448;51.588;7.248;2022-07-23T05:51:48;101127.44;;;18.88;97.52
51359;BME280;37448;51.588;7.248;2022-07-23T05:54:19;101124.59;;;19.43;97.58
51359;BME280;37448;51.588;7.248;2022-07-23T05:56:49;101140.78;;;19.92;86.66
51359;BME280;37448;51.588;7.248;2022-07-23T05:59:20;101147.50;;;20.29;82.72
51359;BME280;37448;51.588;7.248;2022-07-23T06:01:50;101151.53;;;20.24;81.86
51359;BME280;37448;51.588;7.248;2022-07-23T06:04:21;101151.03;;;20.63;81.10
51359;BME280;37448;51.588;7.248;2022-07-23T06:06:51;101146.25;;;20.90;88.70
51359;BME280;37448;51.588;7.248;2022-07-23T06:09:22;101145.69;;;21.26;86.46
51359;BME280;37448;51.588;7.248;2022-07-23T06:11:52;101151.94;;;21.33;84.90
51359;BME280;37448;51.588;7.248;2022-07-23T06:14:22;101146.13;;;21.67;85.95
51359;BME280;37448;51.588;7.248;2022-07-23T06:16:53;101152.91;;;21.90;74.23
51359;BME280;37448;51.588;7.248;2022-07-23T06:19:23;101165.97;;;21.53;73.25
51359;BME280;37448;51.588;7.248;2022-07-23T06:21:54;101147.63;;;21.29;81.16
51359;BME280;37448;51.588;7.248;2022-07-23T06:24:24;101153.97;;;21.76;74.86
51359;BME280;37448;51.588;7.248;2022-07-23T06:26:54;101164.31;;;22.38;72.27
51359;BME280;37448;51.588;7.248;2022-07-23T06:29:25;101167.56;;;22.17;72.09
51359;BME280;37448;51.588;7.248;2022-07-23T06:31:55;101176.31;;;21.99;70.06
51359;BME280;37448;51.588;7.248;2022-07-23T06:34:26;101179.09;;;22.94;79.81
51359;BME280;37448;51.588;7.248;2022-07-23T06:36:56;101173.66;;;21.92;70.39
51359;BME280;37448;51.588;7.248;2022-07-23T06:39:27;101183.66;;;21.93;70.24
51359;BME280;37448;51.588;7.248;2022-07-23T06:41:57;101173.63;;;22.71;75.66
51359;BME280;37448;51.588;7.248;2022-07-23T06:44:27;101179.69;;;23.18;75.49
51359;BME280;37448;51.588;7.248;2022-07-23T06:46:58;101174.03;;;23.54;73.92
51359;BME280;37448;51.588;7.248;2022-07-23T06:49:28;101186.31;;;22.75;67.18
51359;BME280;37448;51.588;7.248;2022-07-23T06:51:59;101186.19;;;22.99;67.98
51359;BME280;37448;51.588;7.248;2022-07-23T06:54:29;101173.47;;;23.43;77.08
51359;BME280;37448;51.588;7.248;2022-07-23T06:56:59;101188.81;;;23.06;67.95
51359;BME280;37448;51.588;7.248;2022-07-23T06:59:30;101186.25;;;23.76;73.07
51359;BME280;37448;51.588;7.248;2022-07-23T07:02:00;101195.47;;;23.60;66.13
51359;BME280;37448;51.588;7.248;2022-07-23T07:04:31;101192.75;;;23.41;67.94
51359;BME280;37448;51.588;7.248;2022-07-23T07:07:02;101187.34;;;23.34;68.26
51359;BME280;37448;51.588;7.248;2022-07-23T07:09:32;101185.22;;;21.71;70.82
51359;BME280;37448;51.588;7.248;2022-07-23T07:12:03;101184.59;;;20.60;77.05
51359;BME280;37448;51.588;7.248;2022-07-23T07:14:33;101196.69;;;22.95;70.98
51359;BME280;37448;51.588;7.248;2022-07-23T07:17:04;101192.31;;;21.99;72.30
51359;BME280;37448;51.588;7.248;2022-07-23T07:19:34;101194.56;;;22.63;74.81
51359;BME280;37448;51.588;7.248;2022-07-23T07:22:04;101191.38;;;23.49;69.56
51359;BME280;37448;51.588;7.248;2022-07-23T07:24:35;101199.50;;;23.27;65.96
51359;BME280;37448;51.588;7.248;2022-07-23T07:27:05;101207.81;;;24.37;64.26
51359;BME280;37448;51.588;7.248;2022-07-23T07:29:35;101193.44;;;23.77;67.24
51359;BME280;37448;51.588;7.248;2022-07-23T07:32:06;101201.22;;;24.14;66.17
51359;BME280;37448;51.588;7.248;2022-07-23T07:34:36;101202.44;;;22.88;65.34
51359;BME280;37448;51.588;7.248;2022-07-23T07:37:06;101206.91;;;23.53;64.81
51359;BME280;37448;51.588;7.248;2022-07-23T07:39:37;101208.41;;;22.73;64.52
51359;BME280;37448;51.588;7.248;2022-07-23T07:42:07;101210.31;;;23.29;64.45
51359;BME280;37448;51.588;7.248;2022-07-23T07:44:38;101214.94;;;23.35;62.10
51359;BME280;37448;51.588;7.248;2022-07-23T07:47:08;101212.31;;;23.28;63.53
51359;BME280;37448;51.588;7.248;2022-07-23T07:49:38;101207.50;;;21.31;68.36
51359;BME280;37448;51.588;7.248;2022-07-23T07:52:09;101205.72;;;23.35;66.39
51359;BME280;37448;51.588;7.248;2022-07-23T07:54:40;101207.63;;;23.86;64.97
51359;BME280;37448;51.588;7.248;2022-07-23T07:57:10;101214.09;;;23.54;64.83
51359;BME280;37448;51.588;7.248;2022-07-23T07:59:41;101227.03;;;23.64;65.34
51359;BME280;37448;51.588;7.248;2022-07-23T08:02:11;101226.25;;;23.15;63.27
51359;BME280;37448;51.588;7.248;2022-07-23T08:04:42;101226.41;;;23.73;61.70
51359;BME280;37448;51.588;7.248;2022-07-23T08:07:12;101227.94;;;24.35;63.41
51359;BME280;37448;51.588;7.248;2022-07-23T08:09:43;101233.91;;;23.63;58.97
51359;BME280;37448;51.588;7.248;2022-07-23T08:12:13;101232.91;;;23.38;64.59
51359;BME280;37448;51.588;7.248;2022-07-23T08:14:43;101230.50;;;21.85;62.33
51359;BME280;37448;51.588;7.248;2022-07-23T08:17:14;101230.72;;;23.78;59.20
51359;BME280;37448;51.588;7.248;2022-07-23T08:19:45;101228.16;;;24.82;62.99
51359;BME280;37448;51.588;7.248;2022-07-23T08:22:15;101242.00;;;25.15;54.56
51359;BME280;37448;51.588;7.248;2022-07-23T08:24:46;101237.94;;;25.66;51.67
51359;BME280;37448;51.588;7.248;2022-07-23T08:27:16;101247.47;;;24.80;54.36
51359;BME280;37448;51.588;7.248;2022-07-23T08:29:46;101242.00;;;25.40;55.28
51359;BME280;37448;51.588;7.248;2022-07-23T08:32:17;101235.84;;;24.94;58.46
51359;BME280;37448;51.588;7.248;2022-07-23T08:34:47;101238.22;;;23.97;58.85
51359;BME280;37448;51.588;7.248;2022-07-23T08:37:17;101253.22;;;24.77;53.84
51359;BME280;37448;51.588;7.248;2022-07-23T08:39:48;101257.81;;;25.72;53.55
51359;BME280;37448;51.588;7.248;2022-07-23T08:42:18;101263.34;;;26.10;50.34
51359;BME280;37448;51.588;7.248;2022-07-23T08:44:51;101255.22;;;24.06;52.50
51359;BME280;37448;51.588;7.248;2022-07-23T08:47:21;101252.66;;;24.11;60.31
51359;BME280;37448;51.588;7.248;2022-07-23T08:49:52;101261.50;;;26.28;51.67
51359;BME280;37448;51.588;7.248;2022-07-23T08:52:23;101264.56;;;25.87;51.78
51359;BME280;37448;51.588;7.248;2022-07-23T08:54:54;101270.47;;;25.67;51.15
51359;BME280;37448;51.588;7.248;2022-07-23T08:57:25;101251.91;;;24.94;56.02
51359;BME280;37448;51.588;7.248;2022-07-23T08:59:56;101254.28;;;24.54;56.09
51359;BME280;37448;51.588;7.248;2022-07-23T09:02:26;101243.91;;;25.18;56.00
51359;BME280;37448;51.588;7.248;2022-07-23T09:04:57;101252.13;;;25.37;51.15
51359;BME280;37448;51.588;7.248;2022-07-23T09:07:27;101250.56;;;25.36;51.49
51359;BME280;37448;51.588;7.248;2022-07-23T09:10:06;101255.72;;;25.38;50.46
51359;BME280;37448;51.588;7.248;2022-07-23T09:12:37;101253.13;;;26.03;54.54
51359;BME280;37448;51.588;7.248;2022-07-23T09:15:08;101259.13;;;26.27;53.02
51359;BME280;37448;51.588;7.248;2022-07-23T09:17:41;101254.47;;;26.33;49.41
51359;BME280;37448;51.588;7.248;2022-07-23T09:20:14;101247.47;;;24.26;53.34
51359;BME280;37448;51.588;7.248;2022-07-23T09:22:46;101249.88;;;24.53;51.84
51359;BME280;37448;51.588;7.248;2022-07-23T09:25:18;101249.56;;;23.77;53.50
51359;BME280;37448;51.588;7.248;2022-07-23T09:30:24;101257.22;;;26.24;50.74
51359;BME280;37448;51.588;7.248;2022-07-23T09:33:10;101257.94;;;23.93;52.22
51359;BME280;37448;51.588;7.248;2022-07-23T09:38:15;101264.16;;;25.00;51.50
51359;BME280;37448;51.588;7.248;2022-07-23T09:40:46;101272.03;;;26.59;52.24
51359;BME280;37448;51.588;7.248;2022-07-23T09:43:27;101264.50;;;24.89;52.76
51359;BME280;37448;51.588;7.248;2022-07-23T09:46:19;101271.38;;;26.76;46.67
51359;BME280;37448;51.588;7.248;2022-07-23T09:48:53;101266.00;;;27.89;44.30
51359;BME280;37448;51.588;7.248;2022-07-23T09:51:26;101264.75;;;27.32;44.07
51359;BME280;37448;51.588;7.248;2022-07-23T09:53:57;101257.53;;;27.31;49.34
51359;BME280;37448;51.588;7.248;2022-07-23T09:56:28;101265.19;;;26.91;47.27
51359;BME280;37448;51.588;7.248;2022-07-23T09:58:59;101265.56;;;27.42;50.83
51359;BME280;37448;51.588;7.248;2022-07-23T10:01:36;101253.69;;;26.32;44.14
51359;BME280;37448;51.588;7.248;2022-07-23T10:04:07;101248.81;;;27.47;42.37
51359;BME280;37448;51.588;7.248;2022-07-23T10:06:42;101243.44;;;24.11;49.06
51359;BME280;37448;51.588;7.248;2022-07-23T10:09:15;101237.22;;;24.20;51.79
51359;BME280;37448;51.588;7.248;2022-07-23T10:11:48;101239.34;;;25.83;52.36
51359;BME280;37448;51.588;7.248;2022-07-23T10:14:20;101243.59;;;26.44;47.41
51359;BME280;37448;51.588;7.248;2022-07-23T10:16:50;101236.19;;;27.30;51.85
51359;BME280;37448;51.588;7.248;2022-07-23T10:19:21;101240.59;;;27.31;47.80
51359;BME280;37448;51.588;7.248;2022-07-23T10:21:55;101248.25;;;26.60;44.32
51359;BME280;37448;51.588;7.248;2022-07-23T10:24:42;101245.75;;;26.40;47.35
51359;BME280;37448;51.588;7.248;2022-07-23T10:30:00;101252.03;;;27.95;43.62
51359;BME280;37448;51.588;7.248;2022-07-23T10:33:01;101246.38;;;27.95;42.48
51359;BME280;37448;51.588;7.248;2022-07-23T10:41:35;101252.94;;;27.64;41.38
51359;BME280;37448;51.588;7.248;2022-07-23T10:44:13;101246.44;;;28.91;38.65
51359;BME280;37448;51.588;7.248;2022-07-23T10:47:03;101253.31;;;29.41;38.35
51359;BME280;37448;51.588;7.248;2022-07-23T10:49:52;101252.09;;;29.33;39.81
51359;BME280;37448;51.588;7.248;2022-07-23T10:52:24;101248.06;;;28.83;40.56
51359;BME280;37448;51.588;7.248;2022-07-23T10:54:56;101245.75;;;28.73;40.51
51359;BME280;37448;51.588;7.248;2022-07-23T10:57:50;101246.38;;;28.58;39.27
51359;BME280;37448;51.588;7.248;2022-07-23T11:00:33;101248.38;;;29.18;38.96
51359;BME280;37448;51.588;7.248;2022-07-23T11:03:06;101241.63;;;25.51;47.65
51359;BME280;37448;51.588;7.248;2022-07-23T11:05:55;101234.50;;;26.06;45.36
51359;BME280;37448;51.588;7.248;2022-07-23T11:08:26;101231.03;;;26.02;46.12
51359;BME280;37448;51.588;7.248;2022-07-23T11:11:09;101234.28;;;27.18;44.33
51359;BME280;37448;51.588;7.248;2022-07-23T11:13:49;101229.38;;;27.58;43.80
51359;BME280;37448;51.588;7.248;2022-07-23T11:16:21;101230.66;;;28.57;41.36
51359;BME280;37448;51.588;7.248;2022-07-23T11:18:58;101233.88;;;29.25;38.47
51359;BME280;37448;51.588;7.248;2022-07-23T11:24:11;101244.81;;;27.94;40.70
51359;BME280;37448;51.588;7.248;2022-07-23T11:26:49;101244.94;;;28.63;38.19
51359;BME280;37448;51.588;7.248;2022-07-23T11:37:12;101236.72;;;28.83;38.85
51359;BME280;37448;51.588;7.248;2022-07-23T11:39:46;101235.22;;;27.15;43.09
51359;BME280;37448;51.588;7.248;2022-07-23T11:42:17;101231.50;;;26.87;42.80
51359;BME280;37448;51.588;7.248;2022-07-23T11:44:50;101234.38;;;26.22;42.92
51359;BME280;37448;51.588;7.248;2022-07-23T11:47:23;101233.31;;;27.03;41.40
51359;BME280;37448;51.588;7.248;2022-07-23T11:49:56;101239.53;;;29.25;36.11
51359;BME280;37448;51.588;7.248;2022-07-23T11:52:28;101234.63;;;29.02;36.59
51359;BME280;37448;51.588;7.248;2022-07-23T11:57:36;101240.91;;;28.46;37.08
51359;BME280;37448;51.588;7.248;2022-07-23T12:00:12;101239.09;;;29.18;33.19
51359;BME280;37448;51.588;7.248;2022-07-23T12:02:46;101233.34;;;27.97;35.81
51359;BME280;37448;51.588;7.248;2022-07-23T12:05:19;101233.47;;;28.67;35.34
51359;BME280;37448;51.588;7.248;2022-07-23T12:07:52;101226.88;;;29.44;34.96
51359;BME280;37448;51.588;7.248;2022-07-23T12:10:28;101228.53;;;28.16;36.66
51359;BME280;37448;51.588;7.248;2022-07-23T12:13:02;101217.47;;;28.54;39.62
51359;BME280;37448;51.588;7.248;2022-07-23T12:15:36;101232.47;;;29.54;34.54
51359;BME280;37448;51.588;7.248;2022-07-23T12:18:13;101226.94;;;29.02;34.41
51359;BME280;37448;51.588;7.248;2022-07-23T12:20:46;101229.25;;;29.04;34.70
51359;BME280;37448;51.588;7.248;2022-07-23T12:23:18;101224.41;;;27.81;36.76
51359;BME280;37448;51.588;7.248;2022-07-23T12:25:50;101214.69;;;27.91;39.62
51359;BME280;37448;51.588;7.248;2022-07-23T12:28:29;101229.22;;;28.80;34.91
51359;BME280;37448;51.588;7.248;2022-07-23T12:31:00;101238.09;;;28.97;35.62
51359;BME280;37448;51.588;7.248;2022-07-23T12:33:38;101223.25;;;29.11;35.03
51359;BME280;37448;51.588;7.248;2022-07-23T12:36:09;101229.19;;;28.89;34.93
51359;BME280;37448;51.588;7.248;2022-07-23T12:38:44;101221.59;;;27.62;39.04
51359;BME280;37448;51.588;7.248;2022-07-23T12:41:17;101219.47;;;28.81;37.23
51359;BME280;37448;51.588;7.248;2022-07-23T12:43:47;101216.03;;;27.50;38.18
51359;BME280;37448;51.588;7.248;2022-07-23T12:46:21;101212.06;;;28.84;38.15
51359;BME280;37448;51.588;7.248;2022-07-23T12:48:53;101219.75;;;29.16;34.71
51359;BME280;37448;51.588;7.248;2022-07-23T12:51:29;101217.19;;;27.80;39.29
51359;BME280;37448;51.588;7.248;2022-07-23T12:54:05;101221.81;;;28.74;35.61
51359;BME280;37448;51.588;7.248;2022-07-23T12:56:38;101218.09;;;28.49;37.92
51359;BME280;37448;51.588;7.248;2022-07-23T12:59:12;101230.31;;;29.48;34.84
51359;BME280;37448;51.588;7.248;2022-07-23T13:01:57;101217.94;;;29.04;36.27
51359;BME280;37448;51.588;7.248;2022-07-23T13:04:31;101219.00;;;28.65;37.15
51359;BME280;37448;51.588;7.248;2022-07-23T13:07:04;101224.41;;;29.61;33.30
51359;BME280;37448;51.588;7.248;2022-07-23T13:09:34;101230.13;;;29.76;31.84
51359;BME280;37448;51.588;7.248;2022-07-23T13:12:05;101231.34;;;29.60;32.72
51359;BME280;37448;51.588;7.248;2022-07-23T13:14:35;101237.84;;;29.19;32.51
51359;BME280;37448;51.588;7.248;2022-07-23T13:17:05;101239.28;;;29.14;34.03
51359;BME280;37448;51.588;7.248;2022-07-23T13:19:36;101239.28;;;29.14;34.39
51359;BME280;37448;51.588;7.248;2022-07-23T13:22:06;101231.25;;;29.13;33.10
51359;BME280;37448;51.588;7.248;2022-07-23T13:24:37;101231.59;;;28.54;35.23
51359;BME280;37448;51.588;7.248;2022-07-23T13:27:07;101243.19;;;28.84;35.53
51359;BME280;37448;51.588;7.248;2022-07-23T13:29:38;101241.72;;;28.97;34.01
51359;BME280;37448;51.588;7.248;2022-07-23T13:32:08;101235.25;;;28.37;34.71
51359;BME280;37448;51.588;7.248;2022-07-23T13:34:39;101234.91;;;27.80;34.20
51359;BME280;37448;51.588;7.248;2022-07-23T13:37:09;101232.22;;;27.49;36.89